createdAt,value
2023-04-30T00:00:02.126Z,8.64
2023-04-30T00:01:01.682Z,8.62
2023-04-30T00:02:04.031Z,8.56
2023-04-30T00:03:02.086Z,8.51
2023-04-30T00:04:01.707Z,8.49
2023-04-30T00:05:01.536Z,8.49
2023-04-30T00:06:02.305Z,8.45
2023-04-30T00:07:03.591Z,8.41
2023-04-30T00:08:03.271Z,8.37
2023-04-30T00:09:01.416Z,8.34
2023-04-30T00:10:02.187Z,8.33
2023-04-30T00:11:02.012Z,8.32
2023-04-30T00:12:02.245Z,8.3
2023-04-30T00:13:02.079Z,8.23
2023-04-30T00:14:01.946Z,8.21
2023-04-30T00:15:03.770Z,8.22
2023-04-30T00:16:02.041Z,8.21
2023-04-30T00:17:01.860Z,8.16
2023-04-30T00:18:03.722Z,8.12
2023-04-30T00:19:01.379Z,8.09
2023-04-30T00:20:03.057Z,8.07
2023-04-30T00:21:01.457Z,8.07
2023-04-30T00:22:01.691Z,8.05
2023-04-30T00:23:01.392Z,8.03
2023-04-30T00:24:01.850Z,7.99
2023-04-30T00:26:01.792Z,7.96
2023-04-30T00:27:02.267Z,7.98
2023-04-30T00:28:01.764Z,7.98
2023-04-30T00:29:02.265Z,7.96
2023-04-30T00:30:01.719Z,7.94
2023-04-30T00:31:02.193Z,7.98
2023-04-30T00:32:01.785Z,7.99
2023-04-30T00:33:02.291Z,7.98
2023-04-30T00:34:01.626Z,7.97
2023-04-30T00:35:03.817Z,7.97
2023-04-30T00:36:03.318Z,7.96
2023-04-30T00:37:02.097Z,7.96
2023-04-30T00:38:01.531Z,7.94
2023-04-30T00:39:03.682Z,7.93
2023-04-30T00:40:02.506Z,7.91
2023-04-30T00:41:03.693Z,7.92
2023-04-30T00:42:01.452Z,7.92
2023-04-30T00:43:01.936Z,7.93
2023-04-30T00:44:01.460Z,7.96
2023-04-30T00:45:01.972Z,7.93
2023-04-30T00:46:01.400Z,7.91
2023-04-30T00:47:01.851Z,7.9
2023-04-30T00:48:01.421Z,7.89
2023-04-30T00:49:01.854Z,7.86
2023-04-30T00:50:01.388Z,7.85
2023-04-30T00:51:03.525Z,7.83
2023-04-30T00:52:04.093Z,7.81
2023-04-30T00:53:01.947Z,7.77
2023-04-30T00:54:01.615Z,7.73
2023-04-30T00:55:01.414Z,7.7
2023-04-30T00:56:02.118Z,7.68
2023-04-30T00:57:01.687Z,7.67
2023-04-30T00:58:02.336Z,7.65
2023-04-30T00:59:03.524Z,7.63
2023-04-30T01:00:01.419Z,7.63
2023-04-30T01:01:02.072Z,7.62
2023-04-30T01:02:01.602Z,7.6
2023-04-30T01:03:02.917Z,7.59
2023-04-30T01:04:01.880Z,7.59
2023-04-30T01:05:01.404Z,7.58
2023-04-30T01:06:02.105Z,7.56
2023-04-30T01:07:01.594Z,7.57
2023-04-30T01:08:02.302Z,7.56
2023-04-30T01:09:01.565Z,7.57
2023-04-30T01:10:02.253Z,7.55
2023-04-30T01:11:01.842Z,7.54
2023-04-30T01:12:01.522Z,7.54
2023-04-30T01:13:03.945Z,7.53
2023-04-30T01:14:02.009Z,7.49
2023-04-30T01:15:01.722Z,7.46
2023-04-30T01:16:01.403Z,7.44
2023-04-30T01:17:03.938Z,7.43
2023-04-30T01:18:01.735Z,7.41
2023-04-30T01:19:02.375Z,7.38
2023-04-30T01:20:03.753Z,7.34
2023-04-30T01:21:01.617Z,7.3
2023-04-30T01:22:02.241Z,7.28
2023-04-30T01:23:02.347Z,7.26
2023-04-30T01:24:02.090Z,7.23
2023-04-30T01:25:03.875Z,7.19
2023-04-30T01:26:01.769Z,7.15
2023-04-30T01:27:01.526Z,7.12
2023-04-30T01:28:01.533Z,7.1
2023-04-30T01:29:02.088Z,7.04
2023-04-30T01:30:01.914Z,6.99
2023-04-30T01:31:01.379Z,6.96
2023-04-30T01:32:02.280Z,6.94
2023-04-30T01:33:02.378Z,6.91
2023-04-30T01:34:02.262Z,6.86
2023-04-30T01:35:03.219Z,6.84
2023-04-30T01:36:02.151Z,6.81
2023-04-30T01:37:03.362Z,6.78
2023-04-30T01:38:04.576Z,6.78
2023-04-30T01:39:02.094Z,6.76
2023-04-30T01:40:01.755Z,6.74
2023-04-30T01:41:03.988Z,6.74
2023-04-30T01:42:03.444Z,6.73
2023-04-30T01:43:01.365Z,6.71
2023-04-30T01:44:01.858Z,6.7
2023-04-30T01:45:01.440Z,6.7
2023-04-30T01:46:02.043Z,6.7
2023-04-30T01:47:01.507Z,6.69
2023-04-30T01:48:02.131Z,6.68
2023-04-30T01:49:01.660Z,6.68
2023-04-30T01:50:02.224Z,6.68
2023-04-30T01:51:03.513Z,6.66
2023-04-30T01:52:01.694Z,6.61
2023-04-30T01:53:02.415Z,6.58
2023-04-30T01:54:01.885Z,6.55
2023-04-30T01:55:01.450Z,6.53
2023-04-30T01:56:03.672Z,6.54
2023-04-30T01:57:03.192Z,6.53
2023-04-30T01:58:02.073Z,6.51
2023-04-30T01:59:03.303Z,6.45
2023-04-30T02:00:02.081Z,6.42
2023-04-30T02:01:01.677Z,6.39
2023-04-30T02:02:02.261Z,6.4
2023-04-30T02:03:01.844Z,6.4
2023-04-30T02:04:02.384Z,6.4
2023-04-30T02:05:01.843Z,6.38
2023-04-30T02:06:01.403Z,6.34
2023-04-30T02:07:01.929Z,6.33
2023-04-30T02:08:01.451Z,6.3
2023-04-30T02:09:02.017Z,6.27
2023-04-30T02:10:01.759Z,6.28
2023-04-30T02:11:02.166Z,6.29
2023-04-30T02:12:01.757Z,6.29
2023-04-30T02:13:01.287Z,6.27
2023-04-30T02:14:01.868Z,6.25
2023-04-30T02:15:03.124Z,6.23
2023-04-30T02:16:02.033Z,6.21
2023-04-30T02:17:01.514Z,6.21
2023-04-30T02:18:03.784Z,6.2
2023-04-30T02:19:03.310Z,6.17
2023-04-30T02:20:02.231Z,6.16
2023-04-30T02:21:01.996Z,6.13
2023-04-30T02:22:01.515Z,6.1
2023-04-30T02:23:02.963Z,6.08
2023-04-30T02:24:01.832Z,6.06
2023-04-30T02:25:01.373Z,6.02
2023-04-30T02:26:03.581Z,5.99
2023-04-30T02:27:03.099Z,5.94
2023-04-30T02:28:02.001Z,5.91
2023-04-30T02:29:01.518Z,5.87
2023-04-30T02:30:02.124Z,5.87
2023-04-30T02:31:01.597Z,5.85
2023-04-30T02:32:02.377Z,5.84
2023-04-30T02:33:02.197Z,5.83
2023-04-30T02:34:01.607Z,5.81
2023-04-30T02:35:03.861Z,5.79
2023-04-30T02:36:01.927Z,5.77
2023-04-30T02:37:01.684Z,5.74
2023-04-30T02:38:01.388Z,5.71
2023-04-30T02:39:01.852Z,5.71
2023-04-30T02:40:01.360Z,5.7
2023-04-30T02:41:02.022Z,5.67
2023-04-30T02:42:01.609Z,5.66
2023-04-30T02:43:02.263Z,5.62
2023-04-30T02:44:01.933Z,5.62
2023-04-30T02:45:02.160Z,5.62
2023-04-30T02:46:03.360Z,5.55
2023-04-30T02:47:02.082Z,5.53
2023-04-30T02:48:01.608Z,5.51
2023-04-30T02:49:03.669Z,5.49
2023-04-30T02:50:01.558Z,5.46
2023-04-30T02:51:02.036Z,5.43
2023-04-30T02:52:01.569Z,5.39
2023-04-30T02:53:02.205Z,5.36
2023-04-30T02:54:01.859Z,5.36
2023-04-30T02:55:01.799Z,5.32
2023-04-30T02:56:02.396Z,5.28
2023-04-30T02:57:03.557Z,5.28
2023-04-30T02:58:01.455Z,5.23
2023-04-30T02:59:01.370Z,5.19
2023-04-30T03:00:03.699Z,5.18
2023-04-30T03:01:01.597Z,5.17
2023-04-30T03:02:02.193Z,5.15
2023-04-30T03:03:03.970Z,5.11
2023-04-30T03:04:01.687Z,5.08
2023-04-30T03:05:01.438Z,5.04
2023-04-30T03:06:03.976Z,5
2023-04-30T03:07:02.086Z,4.95
2023-04-30T03:08:03.646Z,4.91
2023-04-30T03:09:01.521Z,4.88
2023-04-30T03:10:02.164Z,4.84
2023-04-30T03:11:01.751Z,4.8
2023-04-30T03:12:03.188Z,4.77
2023-04-30T03:13:02.181Z,4.73
2023-04-30T03:14:01.785Z,4.68
2023-04-30T03:15:01.426Z,4.63
2023-04-30T03:16:02.078Z,4.58
2023-04-30T03:17:01.527Z,4.54
2023-04-30T03:18:01.593Z,4.5
2023-04-30T03:19:02.070Z,4.47
2023-04-30T03:20:01.665Z,4.42
2023-04-30T03:21:02.216Z,4.39
2023-04-30T03:22:01.822Z,4.36
2023-04-30T03:23:01.481Z,4.33
2023-04-30T03:24:02.084Z,4.31
2023-04-30T03:25:01.751Z,4.26
2023-04-30T03:26:01.377Z,4.22
2023-04-30T03:27:03.680Z,4.17
2023-04-30T03:28:01.623Z,4.15
2023-04-30T03:29:02.227Z,4.13
2023-04-30T03:30:01.748Z,4.08
2023-04-30T03:31:01.475Z,4.08
2023-04-30T03:32:02.076Z,4.07
2023-04-30T03:33:01.671Z,4.05
2023-04-30T03:34:01.367Z,4.02
2023-04-30T03:35:02.093Z,3.99
2023-04-30T03:36:01.731Z,3.94
2023-04-30T03:37:02.092Z,3.92
2023-04-30T03:38:01.755Z,3.92
2023-04-30T03:39:04.060Z,3.9
2023-04-30T03:40:01.927Z,3.89
2023-04-30T03:41:03.349Z,3.86
2023-04-30T03:42:02.222Z,3.83
2023-04-30T03:43:01.830Z,3.82
2023-04-30T03:44:05.918Z,3.78
2023-04-30T03:45:01.933Z,3.76
2023-04-30T03:46:01.564Z,3.74
2023-04-30T03:47:02.170Z,3.71
2023-04-30T03:48:01.878Z,3.67
2023-04-30T03:49:01.605Z,3.64
2023-04-30T03:51:02.016Z,3.58
2023-04-30T03:52:01.604Z,3.55
2023-04-30T03:53:01.850Z,3.5
2023-04-30T03:54:03.475Z,3.5
2023-04-30T03:55:01.651Z,3.5
2023-04-30T03:56:03.549Z,3.48
2023-04-30T03:57:03.603Z,3.48
2023-04-30T03:58:01.428Z,3.47
2023-04-30T03:59:01.912Z,3.47
2023-04-30T04:00:03.029Z,3.47
2023-04-30T04:01:01.836Z,3.47
2023-04-30T04:02:02.385Z,3.47
2023-04-30T04:03:02.822Z,3.47
2023-04-30T04:04:01.872Z,3.47
2023-04-30T04:05:01.479Z,3.48
2023-04-30T04:06:02.083Z,3.48
2023-04-30T04:07:01.609Z,3.48
2023-04-30T04:08:02.726Z,3.47
2023-04-30T04:09:03.448Z,3.47
2023-04-30T04:10:02.175Z,3.47
2023-04-30T04:11:01.764Z,3.48
2023-04-30T04:12:01.352Z,3.48
2023-04-30T04:13:02.018Z,3.5
2023-04-30T04:14:03.378Z,3.49
2023-04-30T04:15:02.128Z,3.48
2023-04-30T04:16:01.626Z,3.48
2023-04-30T04:17:02.086Z,3.52
2023-04-30T04:18:06.719Z,3.55
2023-04-30T04:19:02.269Z,3.58
2023-04-30T04:20:01.789Z,3.6
2023-04-30T04:21:02.274Z,3.63
2023-04-30T04:22:03.438Z,3.64
2023-04-30T04:23:01.378Z,3.65
2023-04-30T04:24:02.086Z,3.68
2023-04-30T04:25:01.798Z,3.71
2023-04-30T04:26:04.292Z,3.71
2023-04-30T04:27:03.596Z,3.72
2023-04-30T04:28:03.608Z,3.74
2023-04-30T04:29:01.685Z,3.76
2023-04-30T04:30:01.392Z,3.76
2023-04-30T04:31:03.928Z,3.77
2023-04-30T04:32:01.874Z,3.78
2023-04-30T04:33:01.806Z,3.8
2023-04-30T04:34:01.607Z,3.82
2023-04-30T04:35:02.364Z,3.8
2023-04-30T04:36:03.593Z,3.83
2023-04-30T04:37:01.539Z,3.85
2023-04-30T04:38:02.199Z,3.85
2023-04-30T04:39:01.751Z,3.85
2023-04-30T04:40:01.393Z,3.86
2023-04-30T04:41:02.006Z,3.87
2023-04-30T04:42:03.274Z,3.86
2023-04-30T04:43:02.233Z,3.86
2023-04-30T04:44:02.071Z,3.86
2023-04-30T04:45:03.290Z,3.87
2023-04-30T04:46:02.332Z,3.89
2023-04-30T04:47:01.914Z,3.93
2023-04-30T04:48:01.618Z,3.97
2023-04-30T04:49:02.358Z,3.99
2023-04-30T04:50:01.939Z,3.99
2023-04-30T04:51:01.709Z,4.01
2023-04-30T04:52:02.243Z,4.04
2023-04-30T04:53:01.844Z,4.08
2023-04-30T04:54:01.535Z,4.12
2023-04-30T04:55:04.567Z,4.14
2023-04-30T04:56:02.252Z,4.16
2023-04-30T04:57:01.829Z,4.17
2023-04-30T04:58:01.516Z,4.19
2023-04-30T04:59:02.182Z,4.2
2023-04-30T05:00:01.971Z,4.24
2023-04-30T05:01:01.958Z,4.29
2023-04-30T05:02:02.719Z,4.31
2023-04-30T05:03:02.986Z,4.35
2023-04-30T05:04:02.631Z,4.39
2023-04-30T05:05:01.360Z,4.43
2023-04-30T05:07:03.393Z,4.53
2023-04-30T05:08:02.426Z,4.58
2023-04-30T05:09:01.614Z,4.63
2023-04-30T05:10:01.380Z,4.68
2023-04-30T05:11:02.099Z,4.75
2023-04-30T05:12:01.519Z,4.79
2023-04-30T05:13:02.132Z,4.83
2023-04-30T05:14:03.846Z,4.87
2023-04-30T05:15:03.363Z,4.91
2023-04-30T05:16:01.452Z,4.94
2023-04-30T05:17:02.569Z,4.98
2023-04-30T05:18:01.637Z,5.03
2023-04-30T05:19:03.204Z,5.07
2023-04-30T05:20:02.001Z,5.09
2023-04-30T05:21:03.370Z,5.13
2023-04-30T05:22:02.313Z,5.19
2023-04-30T05:23:02.204Z,5.22
2023-04-30T05:24:01.914Z,5.23
2023-04-30T05:25:01.765Z,5.28
2023-04-30T05:26:01.356Z,5.32
2023-04-30T05:27:03.837Z,5.37
2023-04-30T05:28:02.256Z,5.4
2023-04-30T05:29:01.913Z,5.43
2023-04-30T05:30:01.515Z,5.49
2023-04-30T05:31:02.260Z,5.53
2023-04-30T05:32:03.826Z,5.6
2023-04-30T05:33:01.646Z,5.68
2023-04-30T05:34:02.264Z,5.74
2023-04-30T05:35:01.852Z,5.78
2023-04-30T05:36:01.466Z,5.78
2023-04-30T05:37:02.154Z,5.81
2023-04-30T05:38:01.441Z,5.87
2023-04-30T05:39:02.243Z,5.91
2023-04-30T05:40:01.368Z,5.93
2023-04-30T05:41:03.836Z,5.96
2023-04-30T05:42:01.843Z,5.99
2023-04-30T05:43:01.457Z,6.01
2023-04-30T05:44:03.680Z,6.05
2023-04-30T05:45:02.094Z,6.05
2023-04-30T05:46:01.609Z,6.07
2023-04-30T05:47:03.914Z,6.08
2023-04-30T05:48:03.556Z,6.09
2023-04-30T05:49:03.129Z,6.1
2023-04-30T05:50:03.693Z,6.1
2023-04-30T05:51:01.601Z,6.11
2023-04-30T05:52:02.163Z,6.14
2023-04-30T05:53:01.868Z,6.14
2023-04-30T05:54:01.607Z,6.17
2023-04-30T05:55:01.448Z,6.2
2023-04-30T05:56:02.017Z,6.23
2023-04-30T05:57:01.607Z,6.23
2023-04-30T05:58:02.161Z,6.24
2023-04-30T05:59:01.853Z,6.24
2023-04-30T06:00:01.465Z,6.27
2023-04-30T06:01:01.647Z,6.33
2023-04-30T06:02:02.290Z,6.38
2023-04-30T06:03:02.020Z,6.42
2023-04-30T06:04:01.795Z,6.44
2023-04-30T06:05:02.313Z,6.45
2023-04-30T06:06:03.635Z,6.45
2023-04-30T06:07:01.597Z,6.45
2023-04-30T06:08:02.248Z,6.45
2023-04-30T06:09:02.008Z,6.45
2023-04-30T06:10:01.926Z,6.43
2023-04-30T06:11:03.364Z,6.46
2023-04-30T06:12:01.292Z,6.49
2023-04-30T06:13:02.322Z,6.51
2023-04-30T06:14:03.682Z,6.53
2023-04-30T06:15:01.852Z,6.55
2023-04-30T06:16:01.705Z,6.54
2023-04-30T06:17:01.417Z,6.54
2023-04-30T06:18:02.209Z,6.56
2023-04-30T06:19:02.266Z,6.6
2023-04-30T06:20:01.763Z,6.64
2023-04-30T06:21:01.799Z,6.68
2023-04-30T06:22:02.088Z,6.72
2023-04-30T06:23:01.541Z,6.75
2023-04-30T06:24:01.991Z,6.79
2023-04-30T06:25:01.560Z,6.83
2023-04-30T06:26:02.017Z,6.81
2023-04-30T06:27:03.111Z,6.82
2023-04-30T06:28:01.935Z,6.81
2023-04-30T06:29:01.442Z,6.78
2023-04-30T06:30:01.916Z,6.79
2023-04-30T06:31:01.480Z,6.8
2023-04-30T06:32:04.296Z,6.84
2023-04-30T06:33:02.198Z,6.84
2023-04-30T06:34:02.255Z,6.84
2023-04-30T06:35:01.852Z,6.86
2023-04-30T06:36:01.534Z,6.88
2023-04-30T06:37:02.101Z,6.9
2023-04-30T06:38:02.668Z,6.9
2023-04-30T06:39:01.382Z,6.93
2023-04-30T06:40:01.927Z,6.94
2023-04-30T06:41:01.531Z,6.96
2023-04-30T06:42:01.995Z,6.95
2023-04-30T06:43:01.607Z,6.99
2023-04-30T06:44:02.169Z,7
2023-04-30T06:45:01.757Z,7
2023-04-30T06:46:03.208Z,7.01
2023-04-30T06:47:02.086Z,7.02
2023-04-30T06:48:01.648Z,7.02
2023-04-30T06:49:02.237Z,6.99
2023-04-30T06:50:01.840Z,6.97
2023-04-30T06:51:01.446Z,7
2023-04-30T06:52:03.820Z,7.05
2023-04-30T06:53:01.677Z,7.12
2023-04-30T06:54:02.237Z,7.14
2023-04-30T06:55:01.830Z,7.17
2023-04-30T06:56:01.444Z,7.19
2023-04-30T06:57:02.063Z,7.12
2023-04-30T06:58:01.768Z,7.04
2023-04-30T06:59:01.434Z,7.08
2023-04-30T07:00:01.988Z,7.14
2023-04-30T07:01:01.707Z,7.12
2023-04-30T07:02:01.724Z,7.14
2023-04-30T07:03:02.451Z,7.13
2023-04-30T07:04:01.542Z,7.16
2023-04-30T07:05:03.830Z,7.18
2023-04-30T07:06:01.882Z,7.2
2023-04-30T07:07:01.514Z,7.28
2023-04-30T07:08:02.737Z,7.34
2023-04-30T07:09:02.114Z,7.39
2023-04-30T07:10:02.318Z,7.41
2023-04-30T07:11:02.073Z,7.44
2023-04-30T07:12:01.696Z,7.48
2023-04-30T07:13:01.397Z,7.48
2023-04-30T07:14:02.191Z,7.48
2023-04-30T07:15:01.934Z,7.46
2023-04-30T07:16:01.871Z,7.41
2023-04-30T07:17:01.358Z,7.4
2023-04-30T07:18:02.759Z,7.47
2023-04-30T07:19:03.700Z,7.59
2023-04-30T07:20:01.623Z,7.74
2023-04-30T07:21:01.422Z,7.94
2023-04-30T07:22:01.422Z,8.13
2023-04-30T07:23:04.073Z,8.22
2023-04-30T07:24:01.832Z,8.45
2023-04-30T07:25:01.608Z,8.64
2023-04-30T07:26:02.253Z,8.65
2023-04-30T07:27:02.075Z,8.75
2023-04-30T07:28:02.801Z,8.78
2023-04-30T07:29:01.841Z,8.83
2023-04-30T07:30:03.100Z,8.93
2023-04-30T07:31:02.085Z,8.94
2023-04-30T07:32:03.653Z,8.86
2023-04-30T07:33:02.955Z,8.83
2023-04-30T07:34:03.266Z,8.73
2023-04-30T07:35:03.914Z,8.71
2023-04-30T07:36:01.674Z,8.75
2023-04-30T07:37:02.155Z,8.79
2023-04-30T07:38:01.784Z,8.8
2023-04-30T07:39:02.256Z,8.79
2023-04-30T07:40:01.770Z,8.77
2023-04-30T07:41:02.319Z,8.75
2023-04-30T07:42:01.739Z,8.68
2023-04-30T07:43:03.928Z,8.66
2023-04-30T07:44:01.777Z,8.62
2023-04-30T07:45:02.241Z,8.56
2023-04-30T07:46:01.806Z,8.58
2023-04-30T07:47:04.038Z,8.62
2023-04-30T07:48:01.868Z,8.64
2023-04-30T07:49:02.249Z,8.61
2023-04-30T07:50:01.764Z,8.59
2023-04-30T07:51:02.474Z,8.57
2023-04-30T07:52:01.773Z,8.58
2023-04-30T07:53:01.363Z,8.62
2023-04-30T07:54:01.958Z,8.63
2023-04-30T07:56:01.873Z,8.63
2023-04-30T07:58:01.844Z,8.76
2023-04-30T07:59:02.318Z,8.78
2023-04-30T08:00:03.549Z,8.79
2023-04-30T08:01:01.385Z,8.78
2023-04-30T08:02:03.582Z,8.81
2023-04-30T08:03:01.657Z,8.85
2023-04-30T08:04:01.918Z,8.79
2023-04-30T08:05:01.364Z,8.71
2023-04-30T08:06:01.950Z,8.71
2023-04-30T08:07:01.453Z,8.68
2023-04-30T08:08:01.957Z,8.66
2023-04-30T08:09:01.451Z,8.66
2023-04-30T08:10:01.934Z,8.61
2023-04-30T08:11:01.459Z,8.63
2023-04-30T08:12:02.028Z,8.66
2023-04-30T08:13:01.552Z,8.67
2023-04-30T08:14:03.804Z,8.68
2023-04-30T08:15:01.608Z,8.72
2023-04-30T08:16:02.215Z,8.76
2023-04-30T08:17:01.726Z,8.81
2023-04-30T08:18:02.266Z,8.87
2023-04-30T08:19:01.779Z,8.89
2023-04-30T08:20:02.355Z,8.94
2023-04-30T08:21:01.940Z,8.94
2023-04-30T08:22:03.211Z,8.95
2023-04-30T08:23:02.011Z,9
2023-04-30T08:24:01.546Z,9.03
2023-04-30T08:25:02.103Z,9.05
2023-04-30T08:26:01.618Z,9.07
2023-04-30T08:27:02.088Z,9.04
2023-04-30T08:28:01.603Z,8.95
2023-04-30T08:29:02.164Z,8.94
2023-04-30T08:30:01.706Z,8.94
2023-04-30T08:31:02.166Z,9.04
2023-04-30T08:32:01.824Z,9.1
2023-04-30T08:33:02.377Z,9.17
2023-04-30T08:34:01.850Z,9.21
2023-04-30T08:35:01.490Z,9.3
2023-04-30T08:36:02.005Z,9.35
2023-04-30T08:37:03.198Z,9.45
2023-04-30T08:38:02.161Z,9.48
2023-04-30T08:39:01.788Z,9.53
2023-04-30T08:40:02.990Z,9.62
2023-04-30T08:41:02.020Z,9.66
2023-04-30T08:42:01.892Z,9.64
2023-04-30T08:43:01.458Z,9.65
2023-04-30T08:44:02.019Z,9.68
2023-04-30T08:45:03.487Z,9.63
2023-04-30T08:46:01.512Z,9.61
2023-04-30T08:47:03.704Z,9.65
2023-04-30T08:48:02.247Z,9.72
2023-04-30T08:49:01.929Z,9.8
2023-04-30T08:50:03.301Z,9.81
2023-04-30T08:51:02.010Z,9.77
2023-04-30T08:52:01.529Z,9.78
2023-04-30T08:53:02.248Z,9.9
2023-04-30T08:54:01.871Z,9.96
2023-04-30T08:55:01.637Z,9.99
2023-04-30T08:56:04.000Z,10.06
2023-04-30T08:57:02.003Z,10.07
2023-04-30T08:58:01.931Z,10.05
2023-04-30T08:59:01.546Z,9.98
2023-04-30T09:00:02.111Z,9.91
2023-04-30T09:01:01.607Z,9.8
2023-04-30T09:02:02.965Z,9.81
2023-04-30T09:03:03.006Z,9.88
2023-04-30T09:04:03.835Z,9.95
2023-04-30T09:05:01.458Z,10.03
2023-04-30T09:06:02.047Z,10.12
2023-04-30T09:07:03.602Z,10.15
2023-04-30T09:08:04.668Z,10.22
2023-04-30T09:09:02.275Z,10.31
2023-04-30T09:10:01.931Z,10.46
2023-04-30T09:11:01.648Z,10.72
2023-04-30T09:12:02.249Z,10.98
2023-04-30T09:13:02.020Z,11.15
2023-04-30T09:14:01.697Z,11.22
2023-04-30T09:15:02.331Z,11.3
2023-04-30T09:16:01.878Z,11.31
2023-04-30T09:17:01.438Z,11.34
2023-04-30T09:18:04.037Z,11.14
2023-04-30T09:19:02.255Z,10.95
2023-04-30T09:20:02.109Z,10.77
2023-04-30T09:21:02.065Z,10.77
2023-04-30T09:22:01.846Z,10.86
2023-04-30T09:23:03.235Z,11.07
2023-04-30T09:24:02.123Z,11.23
2023-04-30T09:25:03.440Z,11.32
2023-04-30T09:26:01.486Z,11.44
2023-04-30T09:27:04.106Z,11.58
2023-04-30T09:28:02.097Z,11.66
2023-04-30T09:29:01.780Z,11.71
2023-04-30T09:30:01.514Z,11.69
2023-04-30T09:31:02.369Z,11.66
2023-04-30T09:32:02.055Z,11.78
2023-04-30T09:33:01.439Z,11.93
2023-04-30T09:34:02.202Z,12.07
2023-04-30T09:35:01.919Z,12.16
2023-04-30T09:36:01.613Z,12.28
2023-04-30T09:37:02.850Z,12.41
2023-04-30T09:38:03.115Z,12.53
2023-04-30T09:39:02.269Z,12.6
2023-04-30T09:40:02.081Z,12.66
2023-04-30T09:41:01.681Z,12.76
2023-04-30T09:42:01.518Z,12.9
2023-04-30T09:43:02.254Z,12.91
2023-04-30T09:44:01.934Z,12.99
2023-04-30T09:45:01.369Z,13.11
2023-04-30T09:46:02.166Z,13.1
2023-04-30T09:47:01.899Z,13.02
2023-04-30T09:48:13.096Z,12.84
2023-04-30T09:49:03.120Z,12.79
2023-04-30T09:50:03.872Z,12.86
2023-04-30T09:51:03.871Z,12.9
2023-04-30T09:53:02.248Z,12.71
2023-04-30T09:54:02.334Z,12.67
2023-04-30T09:55:01.557Z,12.58
2023-04-30T09:56:01.527Z,12.4
2023-04-30T09:57:02.140Z,12.19
2023-04-30T09:58:02.255Z,12.18
2023-04-30T09:59:01.693Z,12.31
2023-04-30T10:00:03.851Z,12.41
2023-04-30T10:01:01.695Z,12.59
2023-04-30T10:02:02.114Z,12.74
2023-04-30T10:03:03.247Z,12.76
2023-04-30T10:04:03.857Z,12.55
2023-04-30T10:05:01.658Z,12.57
2023-04-30T10:06:02.108Z,12.66
2023-04-30T10:07:01.456Z,12.78
2023-04-30T10:08:01.933Z,12.81
2023-04-30T10:09:01.461Z,12.92
2023-04-30T10:10:03.613Z,13.02
2023-04-30T10:11:01.391Z,13.04
2023-04-30T10:12:01.851Z,13.01
2023-04-30T10:13:01.375Z,13.02
2023-04-30T10:14:03.525Z,13.11
2023-04-30T10:15:02.338Z,13.17
2023-04-30T10:16:01.853Z,13.08
2023-04-30T10:17:02.471Z,12.9
2023-04-30T10:18:01.752Z,12.72
2023-04-30T10:19:02.180Z,12.66
2023-04-30T10:20:01.691Z,12.57
2023-04-30T10:21:02.198Z,12.64
2023-04-30T10:22:01.619Z,12.72
2023-04-30T10:23:02.161Z,12.86
2023-04-30T10:24:01.604Z,12.89
2023-04-30T10:25:02.087Z,12.9
2023-04-30T10:26:01.644Z,13.01
2023-04-30T10:27:03.775Z,13.17
2023-04-30T10:28:03.985Z,13.32
2023-04-30T10:29:02.003Z,13.41
2023-04-30T10:30:03.200Z,13.46
2023-04-30T10:31:02.049Z,13.38
2023-04-30T10:32:01.589Z,13.29
2023-04-30T10:33:01.946Z,13.15
2023-04-30T10:34:03.121Z,12.95
2023-04-30T10:35:01.930Z,12.87
2023-04-30T10:36:01.368Z,12.81
2023-04-30T10:37:01.969Z,12.73
2023-04-30T10:38:03.040Z,12.7
2023-04-30T10:39:01.844Z,12.74
2023-04-30T10:40:03.036Z,12.8
2023-04-30T10:41:01.844Z,12.85
2023-04-30T10:43:01.863Z,13
2023-04-30T10:44:02.421Z,13.05
2023-04-30T10:45:01.768Z,13.14
2023-04-30T10:46:02.351Z,13.14
2023-04-30T10:47:01.860Z,13.12
2023-04-30T10:48:02.356Z,13.21
2023-04-30T10:49:01.797Z,13.29
2023-04-30T10:50:02.273Z,13.32
2023-04-30T10:51:03.436Z,13.25
2023-04-30T10:52:02.247Z,13.19
2023-04-30T10:53:01.780Z,13.17
2023-04-30T10:54:03.929Z,13.2
2023-04-30T10:55:01.677Z,13.24
2023-04-30T10:56:03.834Z,13.26
2023-04-30T10:57:01.684Z,13.3
2023-04-30T10:58:02.179Z,13.35
2023-04-30T10:59:01.688Z,13.37
2023-04-30T11:00:02.294Z,13.38
2023-04-30T11:01:01.852Z,13.37
2023-04-30T11:02:01.457Z,13.48
2023-04-30T11:03:02.979Z,13.56
2023-04-30T11:04:01.909Z,13.63
2023-04-30T11:05:02.379Z,13.68
2023-04-30T11:06:04.024Z,13.75
2023-04-30T11:07:02.039Z,13.76
2023-04-30T11:08:02.041Z,13.79
2023-04-30T11:09:02.218Z,13.85
2023-04-30T11:10:01.806Z,13.97
2023-04-30T11:11:03.881Z,14.01
2023-04-30T11:12:01.621Z,14
2023-04-30T11:13:02.181Z,14.05
2023-04-30T11:14:02.019Z,14.01
2023-04-30T11:15:01.387Z,13.99
2023-04-30T11:16:01.917Z,13.96
2023-04-30T11:17:03.142Z,13.91
2023-04-30T11:18:02.053Z,13.93
2023-04-30T11:19:01.534Z,14.04
2023-04-30T11:20:02.130Z,14.1
2023-04-30T11:21:01.635Z,14.21
2023-04-30T11:22:02.112Z,14.32
2023-04-30T11:23:03.538Z,14.35
2023-04-30T11:24:02.344Z,14.33
2023-04-30T11:25:01.789Z,14.36
2023-04-30T11:26:02.354Z,14.43
2023-04-30T11:27:03.600Z,14.47
2023-04-30T11:28:01.392Z,14.54
2023-04-30T11:29:01.897Z,14.43
2023-04-30T11:30:01.409Z,14.25
2023-04-30T11:31:01.924Z,14.14
2023-04-30T11:32:01.457Z,14.2
2023-04-30T11:33:01.936Z,14.29
2023-04-30T11:34:04.027Z,14.28
2023-04-30T11:35:01.785Z,14.37
2023-04-30T11:36:02.335Z,14.5
2023-04-30T11:37:01.777Z,14.58
2023-04-30T11:38:02.285Z,14.68
2023-04-30T11:39:01.787Z,14.66
2023-04-30T11:40:04.087Z,14.77
2023-04-30T11:41:01.779Z,14.78
2023-04-30T11:42:01.365Z,14.72
2023-04-30T11:43:01.858Z,14.6
2023-04-30T11:44:01.386Z,14.55
2023-04-30T11:45:03.521Z,14.44
2023-04-30T11:46:01.393Z,14.43
2023-04-30T11:47:02.008Z,14.45
2023-04-30T11:48:01.395Z,14.44
2023-04-30T11:49:03.561Z,14.44
2023-04-30T11:50:01.373Z,14.49
2023-04-30T11:51:01.928Z,14.67
2023-04-30T11:52:01.359Z,14.82
2023-04-30T11:53:01.841Z,14.8
2023-04-30T11:54:01.356Z,14.83
2023-04-30T11:55:01.856Z,14.94
2023-04-30T11:56:01.366Z,15.01
2023-04-30T11:57:01.917Z,15.11
2023-04-30T11:58:01.368Z,15.15
2023-04-30T11:59:01.916Z,15.24
2023-04-30T12:00:03.046Z,15.36
2023-04-30T12:01:01.844Z,15.34
2023-04-30T12:02:01.366Z,15.3
2023-04-30T12:03:02.143Z,15.3
2023-04-30T12:04:01.418Z,15.4
2023-04-30T12:05:02.042Z,15.52
2023-04-30T12:06:01.512Z,15.67
2023-04-30T12:07:01.921Z,15.78
2023-04-30T12:08:01.441Z,15.8
2023-04-30T12:09:01.918Z,15.72
2023-04-30T12:10:03.107Z,15.8
2023-04-30T12:11:03.606Z,15.81
2023-04-30T12:12:01.447Z,15.73
2023-04-30T12:13:03.754Z,15.73
2023-04-30T12:14:01.601Z,15.81
2023-04-30T12:15:02.337Z,15.97
2023-04-30T12:16:03.510Z,16.07
2023-04-30T12:17:02.369Z,15.99
2023-04-30T12:18:02.522Z,16
2023-04-30T12:19:01.750Z,16.03
2023-04-30T12:20:01.856Z,16.11
2023-04-30T12:21:01.445Z,16.26
2023-04-30T12:22:01.846Z,16.4
2023-04-30T12:23:02.157Z,16.45
2023-04-30T12:24:03.416Z,16.39
2023-04-30T12:25:01.562Z,16.21
2023-04-30T12:26:01.994Z,16.26
2023-04-30T12:27:01.613Z,16.27
2023-04-30T12:28:02.721Z,16.14
2023-04-30T12:29:02.159Z,16.26
2023-04-30T12:30:01.769Z,16.48
2023-04-30T12:31:02.252Z,16.64
2023-04-30T12:32:01.779Z,16.78
2023-04-30T12:33:01.382Z,16.91
2023-04-30T12:34:02.177Z,16.94
2023-04-30T12:35:01.833Z,17.04
2023-04-30T12:36:01.498Z,17.15
2023-04-30T12:37:02.145Z,17.17
2023-04-30T12:38:03.760Z,17.06
2023-04-30T12:39:01.936Z,17.07
2023-04-30T12:40:03.835Z,16.89
2023-04-30T12:41:03.131Z,16.81
2023-04-30T12:42:01.808Z,16.85
2023-04-30T12:43:01.691Z,16.89
2023-04-30T12:44:01.355Z,17.05
2023-04-30T12:45:03.918Z,17.2
2023-04-30T12:46:02.238Z,17.26
2023-04-30T12:47:01.701Z,17.34
2023-04-30T12:48:01.515Z,17.35
2023-04-30T12:50:02.189Z,17.41
2023-04-30T12:51:02.026Z,17.48
2023-04-30T12:52:01.936Z,17.55
2023-04-30T12:53:01.804Z,17.66
2023-04-30T12:54:01.443Z,17.69
2023-04-30T12:55:02.140Z,17.51
2023-04-30T12:56:01.929Z,17.45
2023-04-30T12:57:01.793Z,17.48
2023-04-30T12:58:01.458Z,17.44
2023-04-30T12:59:01.709Z,17.4
2023-04-30T13:00:01.447Z,17.29
2023-04-30T13:01:02.316Z,17.07
2023-04-30T13:02:02.212Z,17.01
2023-04-30T13:03:02.422Z,17.17
2023-04-30T13:04:01.785Z,17.35
2023-04-30T13:05:02.136Z,17.49
2023-04-30T13:06:03.480Z,17.65
2023-04-30T13:07:01.460Z,17.68
2023-04-30T13:08:02.012Z,17.65
2023-04-30T13:09:01.377Z,17.6
2023-04-30T13:10:02.104Z,17.82
2023-04-30T13:11:01.854Z,17.97
2023-04-30T13:12:01.642Z,17.95
2023-04-30T13:13:03.311Z,17.91
2023-04-30T13:14:02.349Z,17.72
2023-04-30T13:15:03.727Z,17.43
2023-04-30T13:16:03.458Z,17.41
2023-04-30T13:17:02.090Z,17.38
2023-04-30T13:18:01.774Z,17.53
2023-04-30T13:20:02.251Z,17.69
2023-04-30T13:20:06.065Z,17.69
2023-04-30T13:21:01.957Z,17.79